createdAt,value
2022-08-16T00:02:02.510Z,20.81
2022-08-16T00:07:14.454Z,20.78
2022-08-16T00:12:18.024Z,20.75
2022-08-16T00:17:19.886Z,20.73
2022-08-16T00:22:24.675Z,20.71
2022-08-16T00:27:26.708Z,20.69
2022-08-16T00:32:32.890Z,20.62
2022-08-16T00:37:56.842Z,20.62
2022-08-16T00:42:56.744Z,20.67
2022-08-16T00:47:58.241Z,20.70
2022-08-16T00:52:59.954Z,20.72
2022-08-16T00:58:01.662Z,20.74
2022-08-16T01:03:06.113Z,20.72
2022-08-16T01:08:36.083Z,20.68
2022-08-16T01:13:37.193Z,20.55
2022-08-16T01:18:58.836Z,20.50
2022-08-16T01:24:52.251Z,20.45
2022-08-16T01:29:58.622Z,20.39
2022-08-16T01:35:00.825Z,20.36
2022-08-16T01:40:03.011Z,20.35
2022-08-16T01:45:09.263Z,20.38
2022-08-16T01:50:42.710Z,20.40
2022-08-16T01:55:33.683Z,20.41
2022-08-16T02:00:38.731Z,20.42
2022-08-16T02:05:46.571Z,20.43
2022-08-16T02:10:54.546Z,20.43
2022-08-16T02:15:56.680Z,20.43
2022-08-16T02:20:59.580Z,20.41
2022-08-16T02:26:01.100Z,20.40
2022-08-16T02:31:07.445Z,20.37
2022-08-16T02:36:14.475Z,20.36
2022-08-16T02:41:37.419Z,20.30
2022-08-16T02:46:49.925Z,20.31
2022-08-16T02:51:55.569Z,20.29
2022-08-16T02:56:57.937Z,20.24
2022-08-16T03:02:01.179Z,20.15
2022-08-16T03:07:10.509Z,20.05
2022-08-16T03:12:17.946Z,20.01
2022-08-16T03:17:21.349Z,20.05
2022-08-16T03:22:28.921Z,20.10
2022-08-16T03:27:34.327Z,20.21
2022-08-16T03:32:38.937Z,20.21
2022-08-16T03:38:01.614Z,20.16
2022-08-16T03:43:20.599Z,20.14
2022-08-16T03:48:36.165Z,20.09
2022-08-16T03:53:42.282Z,20.05
2022-08-16T03:58:44.555Z,20.05
2022-08-16T04:03:46.892Z,20.08
2022-08-16T04:08:51.917Z,20.08
2022-08-16T04:14:01.589Z,20.05
2022-08-16T04:19:18.441Z,20.06
2022-08-16T04:24:23.914Z,20.10
2022-08-16T04:29:44.022Z,20.18
2022-08-16T04:34:51.055Z,20.27
2022-08-16T04:39:55.373Z,20.33
2022-08-16T04:45:01.767Z,20.39
2022-08-16T04:50:08.807Z,20.46
2022-08-16T04:55:13.467Z,20.53
2022-08-16T05:00:31.235Z,20.65
2022-08-16T05:05:45.153Z,20.76
2022-08-16T05:11:00.339Z,20.86
2022-08-16T05:16:03.381Z,20.95
2022-08-16T05:21:11.112Z,21.04
2022-08-16T05:26:20.068Z,21.11
2022-08-16T05:31:31.949Z,21.19
2022-08-16T05:36:36.755Z,21.29
2022-08-16T05:41:45.373Z,21.42
2022-08-16T05:46:48.405Z,21.54
2022-08-16T05:51:57.186Z,21.68
2022-08-16T05:56:59.959Z,21.82
2022-08-16T06:02:02.477Z,21.97
2022-08-16T06:07:25.223Z,22.13
2022-08-16T06:12:55.375Z,22.32
2022-08-16T06:17:59.091Z,22.49
2022-08-16T06:23:11.615Z,22.67
2022-08-16T06:28:36.429Z,22.89
2022-08-16T06:33:44.658Z,23.07
2022-08-16T06:38:52.314Z,23.24
2022-08-16T06:44:08.014Z,23.41
2022-08-16T06:49:24.105Z,23.60
2022-08-16T06:54:25.760Z,23.77
2022-08-16T06:59:28.782Z,23.93
2022-08-16T07:04:37.168Z,24.05
2022-08-16T07:09:51.426Z,24.19
2022-08-16T07:14:56.373Z,24.33
2022-08-16T07:20:35.204Z,24.46
2022-08-16T07:25:30.522Z,24.63
2022-08-16T07:30:45.415Z,24.83
2022-08-16T07:36:05.044Z,24.97
2022-08-16T07:41:10.980Z,25.02
2022-08-16T07:46:39.214Z,25.01
2022-08-16T07:51:45.985Z,25.07
2022-08-16T07:56:48.986Z,25.23
2022-08-16T08:01:53.053Z,25.40
2022-08-16T08:06:55.946Z,25.57
2022-08-16T08:12:00.941Z,25.74
2022-08-16T08:17:08.625Z,25.88
2022-08-16T08:22:19.152Z,25.99
2022-08-16T08:27:26.913Z,26.11
2022-08-16T08:32:51.205Z,26.22
2022-08-16T08:37:54.804Z,26.31
2022-08-16T08:43:11.720Z,26.41
2022-08-16T08:48:33.863Z,26.55
2022-08-16T08:53:43.250Z,26.75
2022-08-16T08:58:54.313Z,26.93
2022-08-16T09:04:10.593Z,26.99
2022-08-16T09:09:17.413Z,27.11
2022-08-16T09:14:24.909Z,27.23
2022-08-16T09:19:32.185Z,27.36
2022-08-16T09:24:52.210Z,27.49
2022-08-16T09:30:00.295Z,27.57
2022-08-16T09:35:02.443Z,27.69
2022-08-16T09:40:04.719Z,27.75
2022-08-16T09:45:28.739Z,27.78
2022-08-16T09:50:39.064Z,27.93
2022-08-16T09:55:44.757Z,28.00
2022-08-16T10:00:46.213Z,27.89
2022-08-16T10:05:48.320Z,27.70
2022-08-16T10:11:09.436Z,27.73
2022-08-16T10:21:20.136Z,28.10
2022-08-16T10:27:18.693Z,28.29
2022-08-16T10:31:46.474Z,28.37
2022-08-16T10:36:54.560Z,28.35
2022-08-16T10:41:55.965Z,28.31
2022-08-16T10:46:57.381Z,28.40
2022-08-16T10:52:02.977Z,28.55
2022-08-16T10:57:20.013Z,28.67
2022-08-16T11:02:57.910Z,28.88
2022-08-16T11:07:52.280Z,28.99
2022-08-16T11:12:56.724Z,29.12
2022-08-16T11:23:20.042Z,29.00
2022-08-16T11:33:59.379Z,29.46
2022-08-16T11:39:01.223Z,29.66
2022-08-16T11:44:03.149Z,29.85
2022-08-16T11:49:08.672Z,30.19
2022-08-16T11:54:21.522Z,30.57
2022-08-16T11:59:28.491Z,30.87
2022-08-16T12:04:31.138Z,30.91
2022-08-16T12:09:32.592Z,30.68
2022-08-16T12:14:35.509Z,30.46
2022-08-16T12:19:39.019Z,30.44
2022-08-16T12:24:40.429Z,30.44
2022-08-16T12:29:44.627Z,30.71
2022-08-16T12:34:50.627Z,30.81
2022-08-16T12:39:56.405Z,30.92
2022-08-16T12:44:57.773Z,30.99
2022-08-16T12:50:00.006Z,30.92
2022-08-16T12:55:01.880Z,30.78
2022-08-16T13:00:26.618Z,30.72
2022-08-16T13:10:39.208Z,30.70
2022-08-16T13:15:57.204Z,30.88
2022-08-16T13:21:03.802Z,31.11
2022-08-16T13:26:05.290Z,31.61
2022-08-16T13:31:09.359Z,32.27
2022-08-16T13:36:21.345Z,32.74
2022-08-16T13:41:33.557Z,33.19
2022-08-16T13:46:34.924Z,33.35
2022-08-16T13:51:39.304Z,33.18
2022-08-16T13:56:41.374Z,32.65
2022-08-16T14:01:43.157Z,32.29
2022-08-16T14:06:46.720Z,32.27
2022-08-16T14:11:53.190Z,32.47
2022-08-16T14:16:55.121Z,32.44
2022-08-16T14:22:13.748Z,32.36
2022-08-16T14:27:21.236Z,32.21
2022-08-16T14:32:33.264Z,32.07
2022-08-16T14:37:37.033Z,31.98
2022-08-16T14:42:38.716Z,32.03
2022-08-16T14:47:40.229Z,32.10
2022-08-16T14:53:03.840Z,32.20
2022-08-16T14:58:05.724Z,32.29
2022-08-16T15:03:11.856Z,32.29
2022-08-16T15:08:13.212Z,32.21
2022-08-16T15:13:15.055Z,31.92
2022-08-16T15:18:23.453Z,31.56
2022-08-16T15:23:28.462Z,31.40
2022-08-16T15:28:38.067Z,31.26
2022-08-16T15:33:44.399Z,31.21
2022-08-16T15:39:03.765Z,31.29
2022-08-16T15:44:11.639Z,31.26
2022-08-16T15:49:13.982Z,31.04
2022-08-16T15:54:29.991Z,30.87
2022-08-16T15:59:34.764Z,30.74
2022-08-16T16:04:50.850Z,30.69
2022-08-16T16:09:55.240Z,30.70
2022-08-16T16:14:59.619Z,30.66
2022-08-16T16:20:02.380Z,30.62
2022-08-16T16:25:04.097Z,30.67
2022-08-16T16:30:33.185Z,30.70
2022-08-16T16:35:28.054Z,30.76
2022-08-16T16:40:35.292Z,30.88
2022-08-16T16:45:37.145Z,30.97
2022-08-16T16:50:39.644Z,31.05
2022-08-16T16:55:41.174Z,31.16
2022-08-16T17:00:42.817Z,31.14
2022-08-16T17:05:58.784Z,30.90
2022-08-16T17:11:04.821Z,30.68
2022-08-16T17:16:18.398Z,30.51
2022-08-16T17:21:21.298Z,30.33
2022-08-16T17:26:22.841Z,30.19
2022-08-16T17:31:38.240Z,30.03
2022-08-16T17:36:52.831Z,29.91
2022-08-16T17:41:57.035Z,29.78
2022-08-16T17:46:58.373Z,29.63
2022-08-16T17:51:59.960Z,29.52
2022-08-16T17:57:01.487Z,29.39
2022-08-16T18:02:42.420Z,29.27
2022-08-16T18:07:24.693Z,29.12
2022-08-16T18:12:54.842Z,28.95
2022-08-16T18:17:53.058Z,28.77
2022-08-16T18:22:55.203Z,28.61
2022-08-16T18:27:56.541Z,28.43
2022-08-16T18:32:57.958Z,28.30
2022-08-16T18:37:59.341Z,28.17
2022-08-16T18:43:02.193Z,28.04
2022-08-16T18:48:04.584Z,27.93
2022-08-16T18:53:07.507Z,27.80
2022-08-16T18:58:08.890Z,27.69
2022-08-16T19:03:21.227Z,27.57
2022-08-16T19:08:22.603Z,27.48
2022-08-16T19:13:25.493Z,27.45
2022-08-16T19:18:28.183Z,27.38
2022-08-16T19:23:38.381Z,27.30
2022-08-16T19:28:51.497Z,27.19
2022-08-16T19:34:00.234Z,27.08
2022-08-16T19:39:04.867Z,26.98
2022-08-16T19:44:07.298Z,26.90
2022-08-16T19:49:09.012Z,26.83
2022-08-16T19:54:10.886Z,26.74
2022-08-16T19:59:22.398Z,26.66
2022-08-16T20:04:35.566Z,26.55
2022-08-16T20:09:36.978Z,26.47
2022-08-16T20:14:39.171Z,26.40
2022-08-16T20:19:40.934Z,26.36
2022-08-16T20:24:43.109Z,26.33
2022-08-16T20:29:45.056Z,26.30
2022-08-16T20:34:47.158Z,26.27
2022-08-16T20:39:51.132Z,26.26
2022-08-16T20:45:12.417Z,26.24
2022-08-16T20:50:13.746Z,26.19
2022-08-16T20:55:15.241Z,26.17
2022-08-16T21:00:16.818Z,26.14
2022-08-16T21:05:22.515Z,26.10
2022-08-16T21:10:25.878Z,26.04
2022-08-16T21:15:27.470Z,25.96
2022-08-16T21:20:29.253Z,25.86
2022-08-16T21:25:31.795Z,25.78
2022-08-16T21:30:33.385Z,25.74
2022-08-16T21:35:35.417Z,25.74
2022-08-16T21:40:37.639Z,25.73
2022-08-16T21:45:39.881Z,25.68
2022-08-16T21:50:42.554Z,25.61
2022-08-16T21:55:45.965Z,25.51
2022-08-16T22:00:47.724Z,25.43
2022-08-16T22:06:11.915Z,25.33
2022-08-16T22:11:10.404Z,25.22
2022-08-16T22:16:12.095Z,25.13
2022-08-16T22:21:13.438Z,25.04
2022-08-16T22:26:15.659Z,24.94
2022-08-16T22:31:17.712Z,24.84
2022-08-16T22:36:19.075Z,24.76
2022-08-16T22:41:21.837Z,24.69
2022-08-16T22:46:23.930Z,24.64
2022-08-16T22:51:26.343Z,24.60
2022-08-16T22:56:27.741Z,24.57
2022-08-16T23:01:29.194Z,24.56
2022-08-16T23:06:30.801Z,24.55
2022-08-16T23:11:32.630Z,24.55
2022-08-16T23:16:35.047Z,24.57
2022-08-16T23:21:37.865Z,24.57
2022-08-16T23:26:48.209Z,24.57
2022-08-16T23:31:50.275Z,24.55
2022-08-16T23:36:55.391Z,24.53
2022-08-16T23:41:56.895Z,24.51
2022-08-16T23:46:58.210Z,24.47
2022-08-16T23:52:05.788Z,24.43
2022-08-16T23:57:08.172Z,24.40
